sensor_id;sensor_type;location;lat;lon;timestamp;P1;durP1;ratioP1;P2;durP2;ratioP2
18933;SDS011;9599;53.706;10.384;2023-06-04T00:01:04;27.10;;;25.67;;
18933;SDS011;9599;53.706;10.384;2023-06-04T00:03:42;29.50;;;28.07;;
18933;SDS011;9599;53.706;10.384;2023-06-04T00:06:10;27.37;;;25.97;;
18933;SDS011;9599;53.706;10.384;2023-06-04T00:08:38;27.23;;;25.90;;
18933;SDS011;9599;53.706;10.384;2023-06-04T00:11:06;25.60;;;24.23;;
18933;SDS011;9599;53.706;10.384;2023-06-04T00:13:35;25.17;;;23.90;;
18933;SDS011;9599;53.706;10.384;2023-06-04T00:16:04;24.20;;;22.97;;
18933;SDS011;9599;53.706;10.384;2023-06-04T00:18:33;22.53;;;21.30;;
18933;SDS011;9599;53.706;10.384;2023-06-04T00:21:01;22.27;;;21.13;;
18933;SDS011;9599;53.706;10.384;2023-06-04T00:23:29;22.77;;;21.47;;
18933;SDS011;9599;53.706;10.384;2023-06-04T00:25:57;21.93;;;20.80;;
18933;SDS011;9599;53.706;10.384;2023-06-04T00:28:25;19.93;;;18.93;;
18933;SDS011;9599;53.706;10.384;2023-06-04T00:30:53;20.47;;;19.40;;
18933;SDS011;9599;53.706;10.384;2023-06-04T00:33:22;19.40;;;18.37;;
18933;SDS011;9599;53.706;10.384;2023-06-04T00:35:50;20.33;;;19.30;;
18933;SDS011;9599;53.706;10.384;2023-06-04T00:38:18;19.33;;;18.23;;
18933;SDS011;9599;53.706;10.384;2023-06-04T00:40:46;20.87;;;19.77;;
18933;SDS011;9599;53.706;10.384;2023-06-04T00:43:14;19.80;;;18.70;;
18933;SDS011;9599;53.706;10.384;2023-06-04T00:45:42;19.60;;;18.60;;
18933;SDS011;9599;53.706;10.384;2023-06-04T00:48:10;19.00;;;17.83;;
18933;SDS011;9599;53.706;10.384;2023-06-04T00:50:39;18.90;;;17.90;;
18933;SDS011;9599;53.706;10.384;2023-06-04T00:53:08;18.27;;;17.37;;
18933;SDS011;9599;53.706;10.384;2023-06-04T00:55:37;19.30;;;18.30;;
18933;SDS011;9599;53.706;10.384;2023-06-04T00:58:05;19.23;;;18.03;;
18933;SDS011;9599;53.706;10.384;2023-06-04T01:00:33;19.37;;;18.37;;
18933;SDS011;9599;53.706;10.384;2023-06-04T01:03:01;19.90;;;18.90;;
18933;SDS011;9599;53.706;10.384;2023-06-04T01:05:33;19.83;;;18.83;;
18933;SDS011;9599;53.706;10.384;2023-06-04T01:08:06;20.13;;;19.00;;
18933;SDS011;9599;53.706;10.384;2023-06-04T01:10:35;19.73;;;18.73;;
18933;SDS011;9599;53.706;10.384;2023-06-04T01:13:03;19.20;;;18.20;;
18933;SDS011;9599;53.706;10.384;2023-06-04T01:15:31;20.27;;;18.83;;
18933;SDS011;9599;53.706;10.384;2023-06-04T01:17:59;19.77;;;18.77;;
18933;SDS011;9599;53.706;10.384;2023-06-04T01:20:33;20.43;;;19.33;;
18933;SDS011;9599;53.706;10.384;2023-06-04T01:26:01;20.57;;;19.43;;
18933;SDS011;9599;53.706;10.384;2023-06-04T01:28:30;20.90;;;19.80;;
18933;SDS011;9599;53.706;10.384;2023-06-04T01:31:00;21.97;;;20.77;;
18933;SDS011;9599;53.706;10.384;2023-06-04T01:33:31;21.53;;;20.43;;
18933;SDS011;9599;53.706;10.384;2023-06-04T01:36:00;21.50;;;20.30;;
18933;SDS011;9599;53.706;10.384;2023-06-04T01:38:29;21.87;;;20.73;;
18933;SDS011;9599;53.706;10.384;2023-06-04T01:40:57;20.73;;;19.63;;
18933;SDS011;9599;53.706;10.384;2023-06-04T01:43:28;21.33;;;20.13;;
18933;SDS011;9599;53.706;10.384;2023-06-04T01:45:56;20.77;;;19.47;;
18933;SDS011;9599;53.706;10.384;2023-06-04T01:48:24;20.67;;;19.57;;
18933;SDS011;9599;53.706;10.384;2023-06-04T01:50:52;20.87;;;19.73;;
18933;SDS011;9599;53.706;10.384;2023-06-04T01:53:21;21.37;;;20.33;;
18933;SDS011;9599;53.706;10.384;2023-06-04T01:55:50;22.00;;;20.90;;
18933;SDS011;9599;53.706;10.384;2023-06-04T01:58:19;20.23;;;19.13;;
18933;SDS011;9599;53.706;10.384;2023-06-04T02:00:53;19.67;;;18.67;;
18933;SDS011;9599;53.706;10.384;2023-06-04T02:03:22;19.97;;;18.93;;
18933;SDS011;9599;53.706;10.384;2023-06-04T02:05:50;18.87;;;17.87;;
18933;SDS011;9599;53.706;10.384;2023-06-04T02:08:18;18.03;;;17.03;;
18933;SDS011;9599;53.706;10.384;2023-06-04T02:10:46;19.67;;;18.57;;
18933;SDS011;9599;53.706;10.384;2023-06-04T02:13:16;20.50;;;19.30;;
18933;SDS011;9599;53.706;10.384;2023-06-04T02:15:44;19.43;;;18.43;;
18933;SDS011;9599;53.706;10.384;2023-06-04T02:18:13;18.83;;;17.83;;
18933;SDS011;9599;53.706;10.384;2023-06-04T02:20:47;18.70;;;17.60;;
18933;SDS011;9599;53.706;10.384;2023-06-04T02:23:16;18.30;;;17.30;;
18933;SDS011;9599;53.706;10.384;2023-06-04T02:25:46;18.37;;;17.37;;
18933;SDS011;9599;53.706;10.384;2023-06-04T02:28:16;17.20;;;16.30;;
18933;SDS011;9599;53.706;10.384;2023-06-04T02:30:45;18.03;;;17.03;;
18933;SDS011;9599;53.706;10.384;2023-06-04T02:33:13;17.80;;;16.80;;
18933;SDS011;9599;53.706;10.384;2023-06-04T02:35:41;17.73;;;16.73;;
18933;SDS011;9599;53.706;10.384;2023-06-04T02:38:09;17.03;;;16.13;;
18933;SDS011;9599;53.706;10.384;2023-06-04T02:40:38;18.07;;;16.97;;
18933;SDS011;9599;53.706;10.384;2023-06-04T02:43:06;17.47;;;16.53;;
18933;SDS011;9599;53.706;10.384;2023-06-04T02:45:35;17.57;;;16.40;;
18933;SDS011;9599;53.706;10.384;2023-06-04T02:48:03;17.30;;;16.30;;
18933;SDS011;9599;53.706;10.384;2023-06-04T02:50:32;17.17;;;16.20;;
18933;SDS011;9599;53.706;10.384;2023-06-04T02:53:00;18.90;;;17.90;;
18933;SDS011;9599;53.706;10.384;2023-06-04T02:55:28;16.40;;;15.60;;
18933;SDS011;9599;53.706;10.384;2023-06-04T02:57:56;18.27;;;17.10;;
18933;SDS011;9599;53.706;10.384;2023-06-04T03:00:24;18.73;;;17.83;;
18933;SDS011;9599;53.706;10.384;2023-06-04T03:02:53;18.97;;;17.87;;
18933;SDS011;9599;53.706;10.384;2023-06-04T03:05:29;19.57;;;18.57;;
18933;SDS011;9599;53.706;10.384;2023-06-04T03:07:58;19.80;;;18.70;;
18933;SDS011;9599;53.706;10.384;2023-06-04T03:10:28;19.73;;;18.63;;
18933;SDS011;9599;53.706;10.384;2023-06-04T03:12:57;19.73;;;18.50;;
18933;SDS011;9599;53.706;10.384;2023-06-04T03:15:25;19.27;;;18.13;;
18933;SDS011;9599;53.706;10.384;2023-06-04T03:17:54;19.17;;;18.07;;
18933;SDS011;9599;53.706;10.384;2023-06-04T03:20:23;19.33;;;18.33;;
18933;SDS011;9599;53.706;10.384;2023-06-04T03:22:51;20.33;;;19.20;;
18933;SDS011;9599;53.706;10.384;2023-06-04T03:25:20;20.00;;;18.90;;
18933;SDS011;9599;53.706;10.384;2023-06-04T03:27:48;18.87;;;17.87;;
18933;SDS011;9599;53.706;10.384;2023-06-04T03:30:16;22.00;;;20.63;;
18933;SDS011;9599;53.706;10.384;2023-06-04T03:32:58;20.20;;;19.20;;
18933;SDS011;9599;53.706;10.384;2023-06-04T03:35:26;19.73;;;18.20;;
18933;SDS011;9599;53.706;10.384;2023-06-04T03:37:54;20.43;;;19.10;;
18933;SDS011;9599;53.706;10.384;2023-06-04T03:40:23;20.20;;;19.10;;
18933;SDS011;9599;53.706;10.384;2023-06-04T03:42:52;19.87;;;18.80;;
18933;SDS011;9599;53.706;10.384;2023-06-04T03:45:25;19.87;;;18.87;;
18933;SDS011;9599;53.706;10.384;2023-06-04T03:47:54;20.00;;;18.80;;
18933;SDS011;9599;53.706;10.384;2023-06-04T03:50:24;20.13;;;19.03;;
18933;SDS011;9599;53.706;10.384;2023-06-04T03:52:53;19.13;;;18.13;;
18933;SDS011;9599;53.706;10.384;2023-06-04T03:55:22;19.00;;;17.97;;
18933;SDS011;9599;53.706;10.384;2023-06-04T03:57:53;19.40;;;18.30;;
18933;SDS011;9599;53.706;10.384;2023-06-04T04:00:21;18.23;;;17.23;;
18933;SDS011;9599;53.706;10.384;2023-06-04T04:02:52;18.60;;;17.50;;
18933;SDS011;9599;53.706;10.384;2023-06-04T04:05:26;19.47;;;18.10;;
18933;SDS011;9599;53.706;10.384;2023-06-04T04:07:53;18.77;;;17.80;;
18933;SDS011;9599;53.706;10.384;2023-06-04T04:10:25;20.03;;;18.93;;
18933;SDS011;9599;53.706;10.384;2023-06-04T04:12:54;19.83;;;18.73;;
18933;SDS011;9599;53.706;10.384;2023-06-04T04:15:25;20.47;;;19.37;;
18933;SDS011;9599;53.706;10.384;2023-06-04T04:17:54;20.97;;;19.70;;
18933;SDS011;9599;53.706;10.384;2023-06-04T04:20:23;22.03;;;20.63;;
18933;SDS011;9599;53.706;10.384;2023-06-04T04:22:59;24.03;;;22.73;;
18933;SDS011;9599;53.706;10.384;2023-06-04T04:25:28;22.50;;;21.37;;
18933;SDS011;9599;53.706;10.384;2023-06-04T04:28:00;23.90;;;22.57;;
18933;SDS011;9599;53.706;10.384;2023-06-04T04:30:29;24.27;;;22.93;;
18933;SDS011;9599;53.706;10.384;2023-06-04T04:33:00;25.63;;;24.33;;
18933;SDS011;9599;53.706;10.384;2023-06-04T04:35:34;25.27;;;23.77;;
18933;SDS011;9599;53.706;10.384;2023-06-04T04:38:05;26.83;;;25.33;;
18933;SDS011;9599;53.706;10.384;2023-06-04T04:40:40;23.93;;;22.63;;
18933;SDS011;9599;53.706;10.384;2023-06-04T04:43:10;25.80;;;24.03;;
18933;SDS011;9599;53.706;10.384;2023-06-04T04:45:38;23.00;;;21.77;;
18933;SDS011;9599;53.706;10.384;2023-06-04T04:48:08;24.43;;;23.03;;
18933;SDS011;9599;53.706;10.384;2023-06-04T04:50:39;21.73;;;20.37;;
18933;SDS011;9599;53.706;10.384;2023-06-04T04:53:09;22.87;;;21.57;;
18933;SDS011;9599;53.706;10.384;2023-06-04T04:55:38;20.90;;;19.60;;
18933;SDS011;9599;53.706;10.384;2023-06-04T04:58:07;21.30;;;20.00;;
18933;SDS011;9599;53.706;10.384;2023-06-04T05:00:35;20.87;;;19.67;;
18933;SDS011;9599;53.706;10.384;2023-06-04T05:03:03;22.93;;;21.57;;
18933;SDS011;9599;53.706;10.384;2023-06-04T05:05:31;24.70;;;23.20;;
18933;SDS011;9599;53.706;10.384;2023-06-04T05:08:02;27.10;;;25.50;;
18933;SDS011;9599;53.706;10.384;2023-06-04T05:10:37;27.97;;;26.27;;
18933;SDS011;9599;53.706;10.384;2023-06-04T05:13:06;27.70;;;26.13;;
18933;SDS011;9599;53.706;10.384;2023-06-04T05:15:41;25.73;;;24.03;;
18933;SDS011;9599;53.706;10.384;2023-06-04T05:18:12;24.70;;;23.20;;
18933;SDS011;9599;53.706;10.384;2023-06-04T05:20:42;23.40;;;22.10;;
18933;SDS011;9599;53.706;10.384;2023-06-04T05:23:12;23.67;;;22.37;;
18933;SDS011;9599;53.706;10.384;2023-06-04T05:25:43;21.67;;;20.30;;
18933;SDS011;9599;53.706;10.384;2023-06-04T05:28:12;22.80;;;21.33;;
18933;SDS011;9599;53.706;10.384;2023-06-04T05:30:40;21.37;;;19.80;;
18933;SDS011;9599;53.706;10.384;2023-06-04T05:33:10;23.07;;;21.47;;
18933;SDS011;9599;53.706;10.384;2023-06-04T05:35:53;21.20;;;19.93;;
18933;SDS011;9599;53.706;10.384;2023-06-04T05:38:25;21.33;;;19.60;;
18933;SDS011;9599;53.706;10.384;2023-06-04T05:40:58;20.03;;;18.77;;
18933;SDS011;9599;53.706;10.384;2023-06-04T05:43:31;20.23;;;18.83;;
18933;SDS011;9599;53.706;10.384;2023-06-04T05:45:59;19.13;;;17.73;;
18933;SDS011;9599;53.706;10.384;2023-06-04T05:48:27;19.77;;;18.47;;
18933;SDS011;9599;53.706;10.384;2023-06-04T05:50:55;19.50;;;18.00;;
18933;SDS011;9599;53.706;10.384;2023-06-04T05:53:23;19.47;;;18.10;;
18933;SDS011;9599;53.706;10.384;2023-06-04T05:55:52;20.07;;;18.53;;
18933;SDS011;9599;53.706;10.384;2023-06-04T05:58:21;18.40;;;17.10;;
18933;SDS011;9599;53.706;10.384;2023-06-04T06:00:50;18.30;;;17.00;;
18933;SDS011;9599;53.706;10.384;2023-06-04T06:03:18;19.03;;;17.83;;
18933;SDS011;9599;53.706;10.384;2023-06-04T06:05:48;19.70;;;18.40;;
18933;SDS011;9599;53.706;10.384;2023-06-04T06:08:18;20.37;;;19.03;;
18933;SDS011;9599;53.706;10.384;2023-06-04T06:10:46;19.47;;;18.17;;
18933;SDS011;9599;53.706;10.384;2023-06-04T06:13:14;22.80;;;21.30;;
18933;SDS011;9599;53.706;10.384;2023-06-04T06:15:45;23.53;;;21.93;;
18933;SDS011;9599;53.706;10.384;2023-06-04T06:18:14;25.37;;;23.67;;
18933;SDS011;9599;53.706;10.384;2023-06-04T06:20:42;23.60;;;21.87;;
18933;SDS011;9599;53.706;10.384;2023-06-04T06:23:11;24.50;;;23.00;;
18933;SDS011;9599;53.706;10.384;2023-06-04T06:25:43;21.57;;;20.10;;
18933;SDS011;9599;53.706;10.384;2023-06-04T06:28:22;21.20;;;19.63;;
18933;SDS011;9599;53.706;10.384;2023-06-04T06:30:52;23.40;;;21.97;;
18933;SDS011;9599;53.706;10.384;2023-06-04T06:33:21;24.93;;;23.10;;
18933;SDS011;9599;53.706;10.384;2023-06-04T06:35:49;21.63;;;20.13;;
18933;SDS011;9599;53.706;10.384;2023-06-04T06:38:17;22.03;;;20.57;;
18933;SDS011;9599;53.706;10.384;2023-06-04T06:40:45;20.13;;;18.83;;
18933;SDS011;9599;53.706;10.384;2023-06-04T06:43:13;21.10;;;19.63;;
18933;SDS011;9599;53.706;10.384;2023-06-04T06:45:41;21.97;;;20.57;;
18933;SDS011;9599;53.706;10.384;2023-06-04T06:48:11;21.07;;;19.67;;
18933;SDS011;9599;53.706;10.384;2023-06-04T06:50:39;21.13;;;19.87;;
18933;SDS011;9599;53.706;10.384;2023-06-04T06:53:06;23.10;;;21.60;;
18933;SDS011;9599;53.706;10.384;2023-06-04T06:55:34;24.00;;;22.43;;
18933;SDS011;9599;53.706;10.384;2023-06-04T06:58:02;22.93;;;21.57;;
18933;SDS011;9599;53.706;10.384;2023-06-04T07:00:30;24.60;;;23.10;;
18933;SDS011;9599;53.706;10.384;2023-06-04T07:02:58;25.03;;;23.43;;
18933;SDS011;9599;53.706;10.384;2023-06-04T07:05:28;25.57;;;23.97;;
18933;SDS011;9599;53.706;10.384;2023-06-04T07:07:56;25.83;;;24.13;;
18933;SDS011;9599;53.706;10.384;2023-06-04T07:10:25;24.33;;;22.83;;
18933;SDS011;9599;53.706;10.384;2023-06-04T07:12:53;23.43;;;21.93;;
18933;SDS011;9599;53.706;10.384;2023-06-04T07:15:21;25.17;;;23.47;;
18933;SDS011;9599;53.706;10.384;2023-06-04T07:17:49;23.53;;;22.03;;
18933;SDS011;9599;53.706;10.384;2023-06-04T07:20:17;23.97;;;22.53;;
18933;SDS011;9599;53.706;10.384;2023-06-04T07:22:47;21.63;;;20.43;;
18933;SDS011;9599;53.706;10.384;2023-06-04T07:25:14;21.47;;;20.27;;
18933;SDS011;9599;53.706;10.384;2023-06-04T07:27:43;21.60;;;20.07;;
18933;SDS011;9599;53.706;10.384;2023-06-04T07:30:11;20.90;;;19.70;;
18933;SDS011;9599;53.706;10.384;2023-06-04T07:32:39;22.23;;;20.70;;
18933;SDS011;9599;53.706;10.384;2023-06-04T07:35:08;21.60;;;20.37;;
18933;SDS011;9599;53.706;10.384;2023-06-04T07:37:36;24.87;;;23.47;;
18933;SDS011;9599;53.706;10.384;2023-06-04T07:40:06;22.63;;;21.33;;
18933;SDS011;9599;53.706;10.384;2023-06-04T07:42:34;22.27;;;20.90;;
18933;SDS011;9599;53.706;10.384;2023-06-04T07:45:02;23.63;;;22.07;;
18933;SDS011;9599;53.706;10.384;2023-06-04T07:47:31;24.10;;;22.60;;
18933;SDS011;9599;53.706;10.384;2023-06-04T07:49:59;23.10;;;21.73;;
18933;SDS011;9599;53.706;10.384;2023-06-04T07:52:29;23.97;;;22.40;;
18933;SDS011;9599;53.706;10.384;2023-06-04T07:54:57;23.03;;;21.53;;
18933;SDS011;9599;53.706;10.384;2023-06-04T07:57:28;24.57;;;23.10;;
18933;SDS011;9599;53.706;10.384;2023-06-04T07:59:56;24.77;;;23.27;;
18933;SDS011;9599;53.706;10.384;2023-06-04T08:02:24;25.70;;;24.20;;
18933;SDS011;9599;53.706;10.384;2023-06-04T08:04:52;26.23;;;24.60;;
18933;SDS011;9599;53.706;10.384;2023-06-04T08:07:20;24.27;;;22.83;;
18933;SDS011;9599;53.706;10.384;2023-06-04T08:09:48;24.73;;;23.33;;
18933;SDS011;9599;53.706;10.384;2023-06-04T08:12:17;24.40;;;23.10;;
18933;SDS011;9599;53.706;10.384;2023-06-04T08:14:46;26.00;;;24.50;;
18933;SDS011;9599;53.706;10.384;2023-06-04T08:17:16;25.47;;;23.87;;
18933;SDS011;9599;53.706;10.384;2023-06-04T08:19:44;26.10;;;24.63;;
18933;SDS011;9599;53.706;10.384;2023-06-04T08:22:12;25.47;;;23.97;;
18933;SDS011;9599;53.706;10.384;2023-06-04T08:24:40;26.40;;;25.03;;
18933;SDS011;9599;53.706;10.384;2023-06-04T08:27:08;25.93;;;24.33;;
18933;SDS011;9599;53.706;10.384;2023-06-04T08:29:36;26.27;;;24.77;;
18933;SDS011;9599;53.706;10.384;2023-06-04T08:32:07;25.13;;;23.77;;
18933;SDS011;9599;53.706;10.384;2023-06-04T08:34:35;25.80;;;24.30;;
18933;SDS011;9599;53.706;10.384;2023-06-04T08:37:03;24.30;;;23.00;;
18933;SDS011;9599;53.706;10.384;2023-06-04T08:39:32;24.63;;;23.23;;
18933;SDS011;9599;53.706;10.384;2023-06-04T08:42:03;24.87;;;23.50;;
18933;SDS011;9599;53.706;10.384;2023-06-04T08:44:34;25.10;;;23.70;;
18933;SDS011;9599;53.706;10.384;2023-06-04T08:47:03;26.70;;;25.13;;
18933;SDS011;9599;53.706;10.384;2023-06-04T08:49:34;25.80;;;24.17;;
18933;SDS011;9599;53.706;10.384;2023-06-04T08:52:04;25.60;;;24.27;;
18933;SDS011;9599;53.706;10.384;2023-06-04T08:54:33;28.43;;;26.70;;
18933;SDS011;9599;53.706;10.384;2023-06-04T08:57:01;27.80;;;26.23;;
18933;SDS011;9599;53.706;10.384;2023-06-04T08:59:30;27.03;;;25.57;;
18933;SDS011;9599;53.706;10.384;2023-06-04T09:01:58;26.43;;;24.97;;
18933;SDS011;9599;53.706;10.384;2023-06-04T09:04:26;30.27;;;28.57;;
18933;SDS011;9599;53.706;10.384;2023-06-04T09:06:57;28.93;;;27.33;;
18933;SDS011;9599;53.706;10.384;2023-06-04T09:09:28;30.23;;;28.63;;
18933;SDS011;9599;53.706;10.384;2023-06-04T09:11:58;30.43;;;28.83;;
18933;SDS011;9599;53.706;10.384;2023-06-04T09:14:28;30.27;;;28.63;;
18933;SDS011;9599;53.706;10.384;2023-06-04T09:16:56;30.60;;;29.00;;
18933;SDS011;9599;53.706;10.384;2023-06-04T09:19:25;30.87;;;29.27;;
18933;SDS011;9599;53.706;10.384;2023-06-04T09:21:54;29.93;;;28.33;;
18933;SDS011;9599;53.706;10.384;2023-06-04T09:24:25;30.37;;;28.73;;
18933;SDS011;9599;53.706;10.384;2023-06-04T09:27:09;29.57;;;27.60;;
18933;SDS011;9599;53.706;10.384;2023-06-04T09:29:38;31.23;;;29.57;;
18933;SDS011;9599;53.706;10.384;2023-06-04T09:32:06;28.37;;;26.77;;
18933;SDS011;9599;53.706;10.384;2023-06-04T09:34:34;30.43;;;28.73;;
18933;SDS011;9599;53.706;10.384;2023-06-04T09:37:02;29.00;;;27.53;;
18933;SDS011;9599;53.706;10.384;2023-06-04T09:39:42;29.27;;;27.60;;
18933;SDS011;9599;53.706;10.384;2023-06-04T09:42:10;29.17;;;27.57;;
18933;SDS011;9599;53.706;10.384;2023-06-04T09:44:44;27.70;;;26.30;;
18933;SDS011;9599;53.706;10.384;2023-06-04T09:47:13;29.33;;;27.63;;
18933;SDS011;9599;53.706;10.384;2023-06-04T09:49:41;28.43;;;27.00;;
18933;SDS011;9599;53.706;10.384;2023-06-04T09:52:09;28.97;;;27.33;;
18933;SDS011;9599;53.706;10.384;2023-06-04T09:54:39;29.10;;;27.60;;
18933;SDS011;9599;53.706;10.384;2023-06-04T09:57:14;28.03;;;26.63;;
18933;SDS011;9599;53.706;10.384;2023-06-04T09:59:44;28.70;;;27.30;;
18933;SDS011;9599;53.706;10.384;2023-06-04T10:02:13;27.70;;;26.37;;
18933;SDS011;9599;53.706;10.384;2023-06-04T10:04:42;29.83;;;28.20;;
18933;SDS011;9599;53.706;10.384;2023-06-04T10:07:16;28.73;;;27.33;;
18933;SDS011;9599;53.706;10.384;2023-06-04T10:09:44;29.47;;;27.97;;
18933;SDS011;9599;53.706;10.384;2023-06-04T10:12:14;27.07;;;25.67;;
18933;SDS011;9599;53.706;10.384;2023-06-04T10:14:45;28.70;;;27.20;;
18933;SDS011;9599;53.706;10.384;2023-06-04T10:17:22;28.63;;;27.00;;
18933;SDS011;9599;53.706;10.384;2023-06-04T10:19:51;28.33;;;26.93;;
18933;SDS011;9599;53.706;10.384;2023-06-04T10:22:20;27.70;;;26.30;;
18933;SDS011;9599;53.706;10.384;2023-06-04T10:24:48;28.00;;;26.50;;
18933;SDS011;9599;53.706;10.384;2023-06-04T10:27:18;35.17;;;32.47;;
18933;SDS011;9599;53.706;10.384;2023-06-04T10:29:49;28.87;;;27.40;;
18933;SDS011;9599;53.706;10.384;2023-06-04T10:32:19;27.07;;;25.57;;
18933;SDS011;9599;53.706;10.384;2023-06-04T10:34:47;29.40;;;27.90;;
18933;SDS011;9599;53.706;10.384;2023-06-04T10:37:20;28.10;;;26.60;;
18933;SDS011;9599;53.706;10.384;2023-06-04T10:39:51;27.83;;;26.33;;
18933;SDS011;9599;53.706;10.384;2023-06-04T10:42:22;27.63;;;26.13;;
18933;SDS011;9599;53.706;10.384;2023-06-04T10:44:51;28.93;;;27.40;;
18933;SDS011;9599;53.706;10.384;2023-06-04T10:47:23;26.57;;;25.23;;
18933;SDS011;9599;53.706;10.384;2023-06-04T10:49:53;26.57;;;25.27;;
18933;SDS011;9599;53.706;10.384;2023-06-04T10:52:21;28.33;;;26.63;;
18933;SDS011;9599;53.706;10.384;2023-06-04T10:54:49;26.93;;;25.33;;
18933;SDS011;9599;53.706;10.384;2023-06-04T10:57:20;30.43;;;28.63;;
18933;SDS011;9599;53.706;10.384;2023-06-04T10:59:53;26.63;;;25.33;;
18933;SDS011;9599;53.706;10.384;2023-06-04T11:02:22;26.63;;;25.33;;
18933;SDS011;9599;53.706;10.384;2023-06-04T11:04:58;26.57;;;25.07;;
18933;SDS011;9599;53.706;10.384;2023-06-04T11:07:40;27.70;;;26.20;;
18933;SDS011;9599;53.706;10.384;2023-06-04T11:10:09;27.70;;;26.23;;
18933;SDS011;9599;53.706;10.384;2023-06-04T11:12:43;28.33;;;26.93;;
18933;SDS011;9599;53.706;10.384;2023-06-04T11:15:12;28.07;;;26.43;;
18933;SDS011;9599;53.706;10.384;2023-06-04T11:17:50;28.20;;;26.80;;
18933;SDS011;9599;53.706;10.384;2023-06-04T11:20:19;25.60;;;24.30;;
18933;SDS011;9599;53.706;10.384;2023-06-04T11:22:51;26.97;;;25.37;;
18933;SDS011;9599;53.706;10.384;2023-06-04T11:25:20;27.17;;;25.77;;
18933;SDS011;9599;53.706;10.384;2023-06-04T11:27:51;26.97;;;25.57;;
18933;SDS011;9599;53.706;10.384;2023-06-04T11:30:20;27.70;;;26.10;;
18933;SDS011;9599;53.706;10.384;2023-06-04T11:32:48;29.43;;;28.00;;
18933;SDS011;9599;53.706;10.384;2023-06-04T11:35:16;28.03;;;26.60;;
18933;SDS011;9599;53.706;10.384;2023-06-04T11:37:52;26.57;;;25.27;;
18933;SDS011;9599;53.706;10.384;2023-06-04T11:40:21;29.77;;;28.17;;
18933;SDS011;9599;53.706;10.384;2023-06-04T11:42:51;29.20;;;27.53;;
18933;SDS011;9599;53.706;10.384;2023-06-04T11:45:20;28.50;;;27.10;;
18933;SDS011;9599;53.706;10.384;2023-06-04T11:47:51;27.80;;;26.27;;
18933;SDS011;9599;53.706;10.384;2023-06-04T11:50:21;29.10;;;27.60;;
18933;SDS011;9599;53.706;10.384;2023-06-04T11:52:51;26.70;;;25.40;;
18933;SDS011;9599;53.706;10.384;2023-06-04T11:55:20;27.80;;;26.23;;
18933;SDS011;9599;53.706;10.384;2023-06-04T11:57:49;30.07;;;28.53;;
18933;SDS011;9599;53.706;10.384;2023-06-04T12:00:19;27.17;;;25.77;;
18933;SDS011;9599;53.706;10.384;2023-06-04T12:02:48;30.23;;;28.63;;
18933;SDS011;9599;53.706;10.384;2023-06-04T12:05:19;29.80;;;28.23;;
18933;SDS011;9599;53.706;10.384;2023-06-04T12:07:50;28.07;;;26.63;;
18933;SDS011;9599;53.706;10.384;2023-06-04T12:10:18;28.27;;;26.87;;
18933;SDS011;9599;53.706;10.384;2023-06-04T12:12:54;27.60;;;26.20;;
18933;SDS011;9599;53.706;10.384;2023-06-04T12:15:22;28.73;;;27.23;;
18933;SDS011;9599;53.706;10.384;2023-06-04T12:17:50;28.97;;;27.37;;
18933;SDS011;9599;53.706;10.384;2023-06-04T12:20:30;29.40;;;27.93;;
18933;SDS011;9599;53.706;10.384;2023-06-04T12:23:01;29.95;;;28.48;;
18933;SDS011;9599;53.706;10.384;2023-06-04T12:25:29;28.53;;;27.13;;
18933;SDS011;9599;53.706;10.384;2023-06-04T12:27:59;26.80;;;25.40;;
18933;SDS011;9599;53.706;10.384;2023-06-04T12:30:37;26.53;;;25.23;;
18933;SDS011;9599;53.706;10.384;2023-06-04T12:33:06;26.60;;;25.20;;
18933;SDS011;9599;53.706;10.384;2023-06-04T12:35:34;28.27;;;26.87;;
18933;SDS011;9599;53.706;10.384;2023-06-04T12:38:03;27.70;;;26.30;;
18933;SDS011;9599;53.706;10.384;2023-06-04T12:40:35;28.87;;;27.23;;
18933;SDS011;9599;53.706;10.384;2023-06-04T12:43:04;28.57;;;27.07;;
18933;SDS011;9599;53.706;10.384;2023-06-04T12:45:32;29.50;;;27.90;;
18933;SDS011;9599;53.706;10.384;2023-06-04T12:48:00;29.07;;;27.03;;
18933;SDS011;9599;53.706;10.384;2023-06-04T12:50:28;25.63;;;24.33;;
18933;SDS011;9599;53.706;10.384;2023-06-04T12:52:56;30.13;;;28.53;;
18933;SDS011;9599;53.706;10.384;2023-06-04T12:55:24;28.77;;;27.13;;
18933;SDS011;9599;53.706;10.384;2023-06-04T12:57:53;27.43;;;26.00;;
18933;SDS011;9599;53.706;10.384;2023-06-04T13:00:23;28.60;;;27.20;;
18933;SDS011;9599;53.706;10.384;2023-06-04T13:02:52;28.93;;;27.33;;
18933;SDS011;9599;53.706;10.384;2023-06-04T13:05:20;29.53;;;27.70;;
18933;SDS011;9599;53.706;10.384;2023-06-04T13:07:48;28.53;;;26.53;;
18933;SDS011;9599;53.706;10.384;2023-06-04T13:10:16;28.40;;;26.90;;
18933;SDS011;9599;53.706;10.384;2023-06-04T13:12:45;28.77;;;27.27;;
18933;SDS011;9599;53.706;10.384;2023-06-04T13:15:13;28.57;;;27.07;;
18933;SDS011;9599;53.706;10.384;2023-06-04T13:17:42;28.13;;;26.70;;
18933;SDS011;9599;53.706;10.384;2023-06-04T13:20:11;28.60;;;27.10;;
18933;SDS011;9599;53.706;10.384;2023-06-04T13:22:39;25.97;;;24.67;;
18933;SDS011;9599;53.706;10.384;2023-06-04T13:25:10;26.27;;;24.97;;
18933;SDS011;9599;53.706;10.384;2023-06-04T13:27:37;25.13;;;23.93;;
18933;SDS011;9599;53.706;10.384;2023-06-04T13:30:06;28.73;;;27.33;;
18933;SDS011;9599;53.706;10.384;2023-06-04T13:32:34;29.07;;;27.57;;
18933;SDS011;9599;53.706;10.384;2023-06-04T13:35:04;26.80;;;25.33;;
18933;SDS011;9599;53.706;10.384;2023-06-04T13:37:33;28.97;;;27.47;;
18933;SDS011;9599;53.706;10.384;2023-06-04T13:40:01;28.83;;;27.33;;
18933;SDS011;9599;53.706;10.384;2023-06-04T13:42:29;26.23;;;24.93;;
18933;SDS011;9599;53.706;10.384;2023-06-04T13:44:57;29.07;;;27.57;;
18933;SDS011;9599;53.706;10.384;2023-06-04T13:47:26;27.90;;;26.60;;
18933;SDS011;9599;53.706;10.384;2023-06-04T13:49:54;29.20;;;27.70;;
18933;SDS011;9599;53.706;10.384;2023-06-04T13:52:24;27.67;;;26.37;;
18933;SDS011;9599;53.706;10.384;2023-06-04T13:54:54;27.50;;;26.17;;
18933;SDS011;9599;53.706;10.384;2023-06-04T13:57:22;26.83;;;25.30;;
18933;SDS011;9599;53.706;10.384;2023-06-04T13:59:51;27.67;;;26.37;;
18933;SDS011;9599;53.706;10.384;2023-06-04T14:02:19;27.13;;;25.80;;
18933;SDS011;9599;53.706;10.384;2023-06-04T14:04:49;29.80;;;28.30;;
18933;SDS011;9599;53.706;10.384;2023-06-04T14:07:17;28.20;;;26.80;;
18933;SDS011;9599;53.706;10.384;2023-06-04T14:09:46;27.97;;;26.57;;
18933;SDS011;9599;53.706;10.384;2023-06-04T14:12:14;29.77;;;28.30;;
18933;SDS011;9599;53.706;10.384;2023-06-04T14:14:44;29.27;;;27.77;;
18933;SDS011;9599;53.706;10.384;2023-06-04T14:17:12;26.83;;;25.50;;
18933;SDS011;9599;53.706;10.384;2023-06-04T14:19:40;27.70;;;26.40;;
18933;SDS011;9599;53.706;10.384;2023-06-04T14:22:09;29.00;;;27.47;;
18933;SDS011;9599;53.706;10.384;2023-06-04T14:24:37;29.17;;;27.63;;
18933;SDS011;9599;53.706;10.384;2023-06-04T14:27:06;29.00;;;27.10;;
18933;SDS011;9599;53.706;10.384;2023-06-04T14:29:35;28.10;;;26.70;;
18933;SDS011;9599;53.706;10.384;2023-06-04T14:32:06;27.93;;;26.33;;
18933;SDS011;9599;53.706;10.384;2023-06-04T14:34:34;26.27;;;24.97;;
18933;SDS011;9599;53.706;10.384;2023-06-04T14:37:03;27.27;;;25.87;;